createdAt,value
2019-03-16T00:02:17.132Z,70.06
2019-03-16T00:04:45.568Z,70.07
2019-03-16T00:07:14.045Z,70.19
2019-03-16T00:09:42.479Z,70.27
2019-03-16T00:12:13.093Z,70.31
2019-03-16T00:14:41.626Z,70.37
2019-03-16T00:17:10.097Z,70.44
2019-03-16T00:19:38.528Z,70.44
2019-03-16T00:22:07.496Z,70.54
2019-03-16T00:24:35.926Z,70.51
2019-03-16T00:27:04.424Z,70.44
2019-03-16T00:29:32.939Z,70.47
2019-03-16T00:32:12.822Z,70.48
2019-03-16T00:34:31.706Z,70.44
2019-03-16T00:37:00.645Z,70.46
2019-03-16T00:39:29.089Z,70.40
2019-03-16T00:41:57.522Z,70.40
2019-03-16T00:44:26.103Z,70.50
2019-03-16T00:46:54.531Z,70.50
2019-03-16T00:49:23.022Z,70.56
2019-03-16T00:51:51.596Z,70.51
2019-03-16T00:54:20.011Z,70.52
2019-03-16T00:56:48.445Z,70.50
2019-03-16T00:59:17.025Z,70.63
2019-03-16T01:01:45.456Z,70.67
2019-03-16T01:04:14.048Z,70.77
2019-03-16T01:06:42.580Z,70.86
2019-03-16T01:09:11.255Z,70.93
2019-03-16T01:11:39.700Z,71.11
2019-03-16T01:14:08.156Z,71.18
2019-03-16T01:16:36.736Z,71.25
2019-03-16T01:19:05.385Z,71.32
2019-03-16T01:21:33.837Z,71.39
2019-03-16T01:24:02.317Z,71.47
2019-03-16T01:26:30.823Z,71.56
2019-03-16T01:28:59.287Z,71.74
2019-03-16T01:31:27.741Z,71.78
2019-03-16T01:33:56.167Z,71.96
2019-03-16T01:36:24.827Z,72.09
2019-03-16T01:38:53.263Z,72.18
2019-03-16T01:41:21.695Z,72.28
2019-03-16T01:43:50.240Z,72.28
2019-03-16T01:46:18.677Z,72.35
2019-03-16T01:48:47.131Z,72.36
2019-03-16T01:51:15.848Z,72.47
2019-03-16T01:53:44.346Z,72.49
2019-03-16T01:56:12.812Z,72.49
2019-03-16T01:58:41.979Z,72.50
2019-03-16T02:01:10.421Z,72.50
2019-03-16T02:03:38.863Z,72.52
2019-03-16T02:06:07.340Z,72.47
2019-03-16T02:08:35.884Z,72.51
2019-03-16T02:11:04.340Z,72.61
2019-03-16T02:13:32.809Z,72.68
2019-03-16T02:16:10.902Z,72.68
2019-03-16T02:18:31.445Z,72.70
2019-03-16T02:20:59.958Z,72.63
2019-03-16T02:23:29.323Z,72.54
2019-03-16T02:25:57.811Z,72.48
2019-03-16T02:28:26.362Z,72.40
2019-03-16T02:30:54.810Z,72.37
2019-03-16T02:33:23.375Z,72.27
2019-03-16T02:35:51.884Z,72.24
2019-03-16T02:38:20.323Z,72.27
2019-03-16T02:40:49.023Z,72.22
2019-03-16T02:43:17.454Z,72.22
2019-03-16T02:45:45.898Z,72.18
2019-03-16T02:48:14.479Z,72.11
2019-03-16T02:50:42.937Z,72.10
2019-03-16T02:53:11.377Z,72.11
2019-03-16T02:55:39.840Z,72.19
2019-03-16T02:58:08.371Z,72.26
2019-03-16T03:00:36.806Z,72.50
2019-03-16T03:03:05.834Z,72.58
2019-03-16T03:05:34.421Z,72.60
2019-03-16T03:08:02.853Z,72.67
2019-03-16T03:10:31.332Z,72.65
2019-03-16T03:12:59.849Z,72.62
2019-03-16T03:15:28.278Z,72.48
2019-03-16T03:17:56.768Z,72.55
2019-03-16T03:20:25.343Z,72.53
2019-03-16T03:22:54.020Z,72.49
2019-03-16T03:25:22.707Z,72.53
2019-03-16T03:27:51.177Z,72.58
2019-03-16T03:30:19.615Z,72.65
2019-03-16T03:32:48.358Z,72.71
2019-03-16T03:35:16.796Z,72.80
2019-03-16T03:37:45.246Z,72.92
2019-03-16T03:40:13.733Z,73.04
2019-03-16T03:42:42.167Z,73.07
2019-03-16T03:45:12.048Z,73.30
2019-03-16T03:47:40.888Z,73.74
2019-03-16T03:50:11.822Z,73.68
2019-03-16T03:52:40.263Z,73.87
2019-03-16T03:55:10.979Z,73.98
2019-03-16T03:57:39.620Z,73.92
2019-03-16T04:00:18.584Z,74.00
2019-03-16T04:02:47.296Z,73.93
2019-03-16T04:05:15.753Z,73.81
2019-03-16T04:07:44.444Z,73.90
2019-03-16T04:10:13.381Z,73.81
2019-03-16T04:12:41.836Z,73.83
2019-03-16T04:15:11.928Z,73.83
2019-03-16T04:17:40.372Z,73.83
2019-03-16T04:20:13.759Z,73.72
2019-03-16T04:22:42.619Z,73.54
2019-03-16T04:25:11.134Z,73.45
2019-03-16T04:27:39.889Z,73.46
2019-03-16T04:30:10.588Z,73.35
2019-03-16T04:32:39.024Z,73.32
2019-03-16T04:35:07.979Z,73.42
2019-03-16T04:37:36.460Z,73.38
2019-03-16T04:40:06.937Z,73.52
2019-03-16T04:42:35.555Z,73.58
2019-03-16T04:45:05.512Z,73.67
2019-03-16T04:47:33.934Z,73.81
2019-03-16T04:50:02.394Z,73.83
2019-03-16T04:52:31.381Z,73.94
2019-03-16T04:54:59.819Z,74.12
2019-03-16T04:57:28.263Z,74.19
2019-03-16T04:59:57.217Z,74.36
2019-03-16T05:02:25.576Z,74.37
2019-03-16T05:04:54.064Z,74.44
2019-03-16T05:07:22.802Z,74.70
2019-03-16T05:09:51.238Z,74.68
2019-03-16T05:12:19.697Z,74.85
2019-03-16T05:14:48.454Z,74.85
2019-03-16T05:17:16.886Z,74.98
2019-03-16T05:19:45.338Z,75.13
2019-03-16T05:22:14.122Z,75.09
2019-03-16T05:24:42.565Z,75.16
2019-03-16T05:27:11.014Z,75.24
2019-03-16T05:29:39.681Z,75.24
2019-03-16T05:32:08.117Z,75.20
2019-03-16T05:34:36.685Z,75.23
2019-03-16T05:37:05.195Z,75.20
2019-03-16T05:39:33.846Z,75.24
2019-03-16T05:42:05.075Z,75.31
2019-03-16T05:44:32.493Z,75.34
2019-03-16T05:47:00.922Z,75.42
2019-03-16T05:49:29.350Z,75.45
2019-03-16T05:51:57.811Z,75.44
2019-03-16T05:54:26.277Z,75.48
2019-03-16T05:56:54.732Z,75.59
2019-03-16T05:59:23.998Z,75.48
2019-03-16T06:01:52.417Z,75.50
2019-03-16T06:04:20.855Z,75.45
2019-03-16T06:06:49.317Z,75.35
2019-03-16T06:09:17.754Z,75.28
2019-03-16T06:11:46.179Z,75.25
2019-03-16T06:14:14.661Z,75.24
2019-03-16T06:16:43.170Z,75.03
2019-03-16T06:19:11.609Z,74.97
2019-03-16T06:21:40.539Z,74.98
2019-03-16T06:24:08.963Z,74.93
2019-03-16T06:26:37.442Z,74.88
2019-03-16T06:29:05.988Z,74.79
2019-03-16T06:31:34.426Z,74.60
2019-03-16T06:34:02.861Z,74.46
2019-03-16T06:36:31.600Z,74.50
2019-03-16T06:39:00.010Z,74.46
2019-03-16T06:41:28.435Z,74.47
2019-03-16T06:43:57.078Z,74.45
2019-03-16T06:46:25.525Z,74.41
2019-03-16T06:48:53.980Z,74.36
2019-03-16T06:51:22.717Z,74.34
2019-03-16T06:53:51.159Z,73.99
2019-03-16T06:56:19.605Z,73.89
2019-03-16T06:58:48.168Z,73.70
2019-03-16T07:01:16.621Z,73.47
2019-03-16T07:03:45.052Z,73.39
2019-03-16T07:06:13.610Z,73.07
2019-03-16T07:08:42.048Z,72.84
2019-03-16T07:11:10.506Z,72.90
2019-03-16T07:13:39.011Z,72.71
2019-03-16T07:16:07.452Z,72.64
2019-03-16T07:18:35.953Z,72.64
2019-03-16T07:21:04.577Z,72.68
2019-03-16T07:23:33.070Z,72.59
2019-03-16T07:26:14.290Z,72.44
2019-03-16T07:28:32.250Z,72.32
2019-03-16T07:31:00.762Z,72.29
2019-03-16T07:33:29.349Z,72.27
2019-03-16T07:35:58.311Z,72.12
2019-03-16T07:38:26.713Z,72.36
2019-03-16T07:40:55.567Z,72.30
2019-03-16T07:43:24.049Z,72.19
2019-03-16T07:45:52.496Z,72.02
2019-03-16T07:48:20.929Z,71.97
2019-03-16T07:50:49.552Z,71.94
2019-03-16T07:53:17.998Z,72.03
2019-03-16T07:55:46.427Z,71.89
2019-03-16T07:58:14.878Z,71.77
2019-03-16T08:00:43.338Z,71.50
2019-03-16T08:03:11.761Z,71.49
2019-03-16T08:05:40.253Z,71.29
2019-03-16T08:08:08.696Z,71.06
2019-03-16T08:10:37.137Z,71.07
2019-03-16T08:13:05.623Z,70.93
2019-03-16T08:15:34.062Z,70.96
2019-03-16T08:18:02.509Z,70.75
2019-03-16T08:20:31.678Z,69.85
2019-03-16T08:23:00.324Z,70.24
2019-03-16T08:25:28.759Z,70.13
2019-03-16T08:27:57.260Z,70.04
2019-03-16T08:30:25.683Z,69.46
2019-03-16T08:32:54.122Z,69.57
2019-03-16T08:35:23.031Z,69.86
2019-03-16T08:37:51.471Z,69.85
2019-03-16T08:40:19.904Z,69.59
2019-03-16T08:42:51.250Z,68.88
2019-03-16T08:45:18.534Z,68.50
2019-03-16T08:47:46.966Z,68.93
2019-03-16T08:50:15.703Z,68.90
2019-03-16T08:52:44.128Z,68.96
2019-03-16T08:55:12.709Z,68.84
2019-03-16T08:57:41.437Z,68.47
2019-03-16T09:00:14.193Z,68.56
2019-03-16T09:02:42.631Z,68.58
2019-03-16T09:05:11.119Z,68.64
2019-03-16T09:07:39.537Z,68.71
2019-03-16T09:10:09.607Z,68.63
2019-03-16T09:12:38.071Z,68.49
2019-03-16T09:15:11.878Z,68.32
2019-03-16T09:17:40.513Z,68.36
2019-03-16T09:20:09.621Z,68.42
2019-03-16T09:22:38.046Z,68.37
2019-03-16T09:25:08.596Z,68.29
2019-03-16T09:27:37.159Z,67.50
2019-03-16T09:30:08.648Z,67.98
2019-03-16T09:32:37.245Z,67.88
2019-03-16T09:35:06.649Z,67.99
2019-03-16T09:37:35.068Z,69.06
2019-03-16T09:40:03.909Z,68.99
2019-03-16T09:42:32.454Z,69.07
2019-03-16T09:45:00.895Z,69.30
2019-03-16T09:47:29.320Z,69.80
2019-03-16T09:49:58.279Z,70.31
2019-03-16T09:52:26.717Z,70.52
2019-03-16T09:54:55.215Z,70.82
2019-03-16T09:57:23.701Z,70.63
2019-03-16T09:59:52.133Z,71.22
2019-03-16T10:02:20.566Z,70.90
2019-03-16T10:04:49.031Z,70.10
2019-03-16T10:07:17.599Z,69.49
2019-03-16T10:09:46.039Z,69.30
2019-03-16T10:12:14.513Z,69.15
2019-03-16T10:14:42.976Z,68.72
2019-03-16T10:17:11.411Z,68.90
2019-03-16T10:19:40.039Z,68.90
2019-03-16T10:22:08.477Z,68.56
2019-03-16T10:24:36.920Z,68.04
2019-03-16T10:27:05.469Z,67.93
2019-03-16T10:29:33.903Z,67.98
2019-03-16T10:32:02.343Z,68.10
2019-03-16T10:34:30.829Z,67.24
2019-03-16T10:36:59.588Z,66.90
2019-03-16T10:39:28.128Z,66.29
2019-03-16T10:41:57.099Z,65.83
2019-03-16T10:44:25.963Z,65.24
2019-03-16T10:46:54.457Z,64.21
2019-03-16T10:49:23.879Z,64.00
2019-03-16T10:51:52.393Z,64.16
2019-03-16T10:54:21.434Z,64.11
2019-03-16T10:56:51.223Z,64.07
2019-03-16T10:59:19.964Z,62.96
2019-03-16T11:01:50.002Z,63.90
2019-03-16T11:04:18.453Z,64.32
2019-03-16T11:06:47.551Z,64.59
2019-03-16T11:09:15.956Z,64.76
2019-03-16T11:11:44.668Z,64.93
2019-03-16T11:14:13.210Z,65.07
2019-03-16T11:16:41.666Z,64.43
2019-03-16T11:19:10.609Z,64.83
2019-03-16T11:21:39.563Z,65.04
2019-03-16T11:24:07.997Z,65.49
2019-03-16T11:26:36.639Z,66.82
2019-03-16T11:29:09.204Z,67.79
2019-03-16T11:31:35.672Z,68.54
2019-03-16T11:34:04.768Z,69.10
2019-03-16T11:36:33.207Z,70.50
2019-03-16T11:39:01.865Z,70.96
2019-03-16T11:41:30.334Z,71.82
2019-03-16T11:43:59.032Z,72.85
2019-03-16T11:46:29.199Z,73.06
2019-03-16T11:48:58.295Z,73.82
2019-03-16T11:51:26.751Z,74.78
2019-03-16T11:53:55.181Z,74.19
2019-03-16T11:56:24.995Z,76.04
2019-03-16T11:58:53.557Z,75.17
2019-03-16T12:01:22.144Z,75.58
2019-03-16T12:03:50.660Z,76.19
2019-03-16T12:06:19.093Z,76.35
2019-03-16T12:08:47.997Z,76.69
2019-03-16T12:11:16.445Z,77.05
2019-03-16T12:13:44.956Z,76.89
2019-03-16T12:16:13.383Z,76.94
2019-03-16T12:18:42.013Z,77.53
2019-03-16T12:21:10.472Z,77.72
2019-03-16T12:23:39.192Z,77.70
2019-03-16T12:26:08.174Z,77.62
2019-03-16T12:28:37.215Z,77.69
2019-03-16T12:31:05.717Z,77.80
2019-03-16T12:33:34.844Z,78.32
2019-03-16T12:36:03.356Z,78.03
2019-03-16T12:38:32.089Z,78.01
2019-03-16T12:41:00.847Z,77.94
2019-03-16T12:43:29.651Z,78.29
2019-03-16T12:45:58.319Z,78.40
2019-03-16T12:48:27.038Z,78.43
2019-03-16T12:50:55.913Z,78.64
2019-03-16T12:53:24.486Z,78.69
2019-03-16T12:55:53.572Z,78.94
2019-03-16T12:58:22.106Z,79.04
2019-03-16T13:00:50.675Z,79.19
2019-03-16T13:03:19.667Z,79.34
2019-03-16T13:05:48.252Z,79.38
2019-03-16T13:08:16.690Z,80.11
2019-03-16T13:10:45.225Z,79.84
2019-03-16T13:13:13.654Z,80.20
2019-03-16T13:15:42.105Z,80.31
2019-03-16T13:18:10.609Z,80.36
2019-03-16T13:20:39.070Z,80.54
2019-03-16T13:23:07.595Z,80.82
2019-03-16T13:25:36.289Z,81.05
2019-03-16T13:28:04.745Z,81.13
2019-03-16T13:30:33.193Z,81.25
2019-03-16T13:33:01.940Z,81.46
2019-03-16T13:35:30.404Z,81.69
2019-03-16T13:37:58.841Z,81.83
2019-03-16T13:40:27.329Z,81.92
2019-03-16T13:42:57.407Z,82.12
2019-03-16T13:45:25.828Z,82.22
2019-03-16T13:47:55.033Z,82.33
2019-03-16T13:50:23.479Z,82.46
2019-03-16T13:52:52.475Z,82.38
2019-03-16T13:55:20.963Z,82.24
2019-03-16T13:57:49.420Z,82.43
2019-03-16T14:00:22.554Z,82.37
2019-03-16T14:02:51.005Z,82.40
2019-03-16T14:05:19.449Z,82.48
2019-03-16T14:07:47.974Z,82.64
2019-03-16T14:10:22.132Z,82.55
2019-03-16T14:12:50.566Z,82.71
2019-03-16T14:15:19.130Z,82.74
2019-03-16T14:17:47.614Z,82.95
2019-03-16T14:20:16.853Z,83.21
2019-03-16T14:22:45.468Z,83.25
2019-03-16T14:25:14.195Z,83.47
2019-03-16T14:27:42.686Z,83.63
2019-03-16T14:30:34.662Z,83.94
2019-03-16T14:32:47.323Z,83.89
2019-03-16T14:35:15.757Z,83.98
2019-03-16T14:37:44.184Z,83.98
2019-03-16T14:40:14.091Z,84.49
2019-03-16T14:42:42.922Z,84.27
2019-03-16T14:45:12.616Z,84.29
2019-03-16T14:47:41.060Z,84.74
2019-03-16T14:50:22.988Z,84.95
2019-03-16T14:52:51.468Z,84.79
2019-03-16T14:55:19.890Z,85.02
2019-03-16T14:57:48.335Z,85.20
2019-03-16T15:00:17.759Z,85.36
2019-03-16T15:02:52.665Z,85.68
2019-03-16T15:05:21.076Z,85.64
2019-03-16T15:07:50.501Z,85.95
2019-03-16T15:10:19.233Z,85.99
2019-03-16T15:12:47.735Z,86.86
2019-03-16T15:15:17.879Z,86.63
2019-03-16T15:17:46.312Z,86.95
2019-03-16T15:20:14.751Z,86.88
2019-03-16T15:22:43.238Z,87.43
2019-03-16T15:25:12.813Z,88.31
2019-03-16T15:27:41.220Z,87.78
2019-03-16T15:30:21.367Z,87.85
2019-03-16T15:32:50.131Z,88.20
2019-03-16T15:35:18.719Z,88.26
2019-03-16T15:37:47.356Z,88.23
2019-03-16T15:40:16.439Z,88.30
2019-03-16T15:42:44.890Z,88.54
2019-03-16T15:45:16.479Z,88.33
2019-03-16T15:47:44.891Z,88.59
2019-03-16T15:50:13.475Z,88.48
2019-03-16T15:52:41.963Z,88.41
2019-03-16T15:55:10.857Z,88.73
2019-03-16T15:57:42.324Z,88.38
2019-03-16T16:00:17.752Z,88.50
2019-03-16T16:02:46.626Z,88.56
2019-03-16T16:05:15.533Z,88.93
2019-03-16T16:07:44.159Z,88.81
2019-03-16T16:10:15.976Z,88.97
2019-03-16T16:12:44.596Z,89.12
2019-03-16T16:15:13.596Z,89.01
2019-03-16T16:17:42.010Z,88.99
2019-03-16T16:20:12.821Z,89.42
2019-03-16T16:22:41.314Z,89.31
2019-03-16T16:25:11.571Z,89.22
2019-03-16T16:27:40.089Z,89.24
2019-03-16T16:30:21.688Z,89.15
2019-03-16T16:32:50.105Z,89.13
2019-03-16T16:35:18.693Z,89.10
2019-03-16T16:37:47.162Z,89.14
2019-03-16T16:40:17.857Z,89.04
2019-03-16T16:42:46.305Z,89.06
2019-03-16T16:45:16.119Z,89.11
2019-03-16T16:47:44.541Z,89.08
2019-03-16T16:50:21.041Z,88.99
2019-03-16T16:52:49.764Z,89.05
2019-03-16T16:55:18.201Z,88.98
2019-03-16T16:57:46.917Z,88.91
2019-03-16T17:00:24.238Z,89.03
2019-03-16T17:02:52.698Z,88.93
2019-03-16T17:05:21.142Z,88.91
2019-03-16T17:07:49.605Z,88.91
2019-03-16T17:10:18.502Z,88.98
2019-03-16T17:12:46.930Z,88.98
2019-03-16T17:15:17.846Z,88.86
2019-03-16T17:17:46.301Z,88.81
2019-03-16T17:20:15.671Z,88.73
2019-03-16T17:22:45.271Z,88.52
2019-03-16T17:25:15.639Z,88.53
2019-03-16T17:27:44.763Z,88.35
2019-03-16T17:30:16.657Z,88.25
2019-03-16T17:32:45.506Z,88.17
2019-03-16T17:35:13.995Z,88.02
2019-03-16T17:37:42.557Z,87.93
2019-03-16T17:40:15.770Z,87.73
2019-03-16T17:42:46.003Z,87.53
2019-03-16T17:45:15.245Z,87.45
2019-03-16T17:47:44.514Z,87.22
2019-03-16T17:50:17.016Z,86.88
2019-03-16T17:52:47.729Z,86.66
2019-03-16T17:55:17.656Z,86.47
2019-03-16T17:57:49.175Z,86.25
2019-03-16T18:00:18.829Z,86.09
2019-03-16T18:02:52.154Z,85.83
2019-03-16T18:05:20.394Z,85.90
2019-03-16T18:07:49.076Z,85.89
2019-03-16T18:10:19.469Z,85.61
2019-03-16T18:12:48.161Z,85.60
2019-03-16T18:15:18.493Z,85.49
2019-03-16T18:17:48.745Z,85.49
2019-03-16T18:20:20.192Z,85.37
2019-03-16T18:22:49.637Z,85.18
2019-03-16T18:25:18.734Z,85.15
2019-03-16T18:27:48.102Z,84.87
2019-03-16T18:30:19.319Z,84.55
2019-03-16T18:32:48.608Z,84.44
2019-03-16T18:35:17.778Z,84.40
2019-03-16T18:37:47.184Z,84.25
2019-03-16T18:40:25.527Z,84.16
2019-03-16T18:42:54.856Z,84.12
2019-03-16T18:45:26.336Z,84.03
2019-03-16T18:47:57.281Z,84.01
2019-03-16T18:50:29.949Z,83.89
2019-03-16T18:52:58.914Z,83.77
2019-03-16T18:55:29.907Z,83.69
2019-03-16T18:57:59.818Z,83.63
2019-03-16T19:00:29.492Z,83.41
2019-03-16T19:02:58.606Z,83.26
2019-03-16T19:05:28.779Z,82.98
2019-03-16T19:07:57.443Z,82.68
2019-03-16T19:10:29.611Z,82.32
2019-03-16T19:12:58.516Z,82.22
2019-03-16T19:15:27.069Z,81.44
2019-03-16T19:17:58.976Z,80.87
2019-03-16T19:20:26.082Z,80.95
2019-03-16T19:22:54.844Z,80.35
2019-03-16T19:25:27.893Z,80.04
2019-03-16T19:27:57.928Z,79.79
2019-03-16T19:30:32.389Z,79.92
2019-03-16T19:33:01.768Z,79.33
2019-03-16T19:35:31.128Z,79.12
2019-03-16T19:38:00.340Z,78.96
2019-03-16T19:40:29.101Z,78.27
2019-03-16T19:42:57.882Z,78.11
2019-03-16T19:45:26.342Z,77.42
2019-03-16T19:47:54.932Z,76.81
2019-03-16T19:50:23.505Z,76.46
2019-03-16T19:52:52.066Z,76.67
2019-03-16T19:55:20.540Z,76.39
2019-03-16T19:57:48.979Z,75.69
2019-03-16T20:00:18.448Z,75.52
2019-03-16T20:02:51.091Z,74.94
2019-03-16T20:05:17.299Z,74.25
2019-03-16T20:07:45.713Z,74.59
2019-03-16T20:10:16.968Z,74.37
2019-03-16T20:12:45.690Z,74.41
2019-03-16T20:15:15.405Z,74.00
2019-03-16T20:17:44.032Z,74.16
2019-03-16T20:20:13.802Z,73.55
2019-03-16T20:22:42.241Z,73.23
2019-03-16T20:25:11.622Z,73.05
2019-03-16T20:27:40.061Z,72.90
2019-03-16T20:30:16.144Z,72.59
2019-03-16T20:32:50.291Z,72.25
2019-03-16T20:35:14.907Z,71.30
2019-03-16T20:37:44.118Z,71.00
2019-03-16T20:40:14.769Z,71.02
2019-03-16T20:42:43.441Z,71.15
2019-03-16T20:45:12.570Z,70.98
2019-03-16T20:47:41.152Z,70.89
2019-03-16T20:50:16.699Z,70.68
2019-03-16T20:52:45.204Z,70.13
2019-03-16T20:55:13.788Z,69.96
2019-03-16T20:57:42.213Z,69.83
2019-03-16T21:00:17.787Z,69.59
2019-03-16T21:02:46.236Z,69.40
2019-03-16T21:05:15.073Z,68.40
2019-03-16T21:07:43.689Z,68.66
2019-03-16T21:10:13.308Z,68.60
2019-03-16T21:12:42.038Z,68.23
2019-03-16T21:15:11.928Z,68.03
2019-03-16T21:17:40.368Z,67.44
2019-03-16T21:20:19.344Z,67.23
2019-03-16T21:22:47.856Z,67.02
2019-03-16T21:25:16.933Z,66.86
2019-03-16T21:27:45.538Z,66.88
2019-03-16T21:30:21.114Z,67.04
2019-03-16T21:32:49.630Z,67.14
2019-03-16T21:35:18.376Z,67.24
2019-03-16T21:37:47.159Z,67.20
2019-03-16T21:40:16.121Z,67.34
2019-03-16T21:42:44.931Z,67.25
2019-03-16T21:45:14.393Z,66.88
2019-03-16T21:47:42.968Z,66.68
2019-03-16T21:50:12.817Z,66.75
2019-03-16T21:52:44.240Z,66.75
2019-03-16T21:55:13.841Z,66.50
2019-03-16T21:57:42.744Z,66.64
2019-03-16T22:00:16.179Z,66.83
2019-03-16T22:02:44.779Z,66.71
2019-03-16T22:05:13.551Z,66.81
2019-03-16T22:07:42.132Z,66.68
2019-03-16T22:10:15.420Z,66.82
2019-03-16T22:12:44.243Z,66.93
2019-03-16T22:15:14.098Z,67.04
2019-03-16T22:17:42.689Z,67.06
2019-03-16T22:20:13.654Z,67.21
2019-03-16T22:22:42.099Z,67.30
2019-03-16T22:25:11.476Z,67.46
2019-03-16T22:27:40.664Z,67.66
2019-03-16T22:30:19.633Z,67.99
2019-03-16T22:32:48.103Z,68.17
2019-03-16T22:35:16.613Z,68.39
2019-03-16T22:37:45.037Z,68.72
2019-03-16T22:40:14.444Z,68.82
2019-03-16T22:42:43.322Z,69.08
2019-03-16T22:45:13.063Z,69.40
2019-03-16T22:47:41.593Z,69.67
2019-03-16T22:50:17.692Z,70.03
2019-03-16T22:52:46.141Z,70.24
2019-03-16T22:55:16.091Z,70.71
2019-03-16T22:57:44.952Z,70.94
2019-03-16T23:00:15.671Z,71.09
2019-03-16T23:02:44.233Z,71.11
2019-03-16T23:05:12.668Z,71.27
2019-03-16T23:07:41.097Z,71.51
2019-03-16T23:10:12.784Z,71.68
2019-03-16T23:12:41.406Z,71.58
2019-03-16T23:15:11.169Z,71.84
2019-03-16T23:17:39.645Z,71.82
2019-03-16T23:20:09.317Z,71.98
2019-03-16T23:22:37.905Z,72.17
2019-03-16T23:25:08.723Z,72.15
2019-03-16T23:27:37.166Z,72.17
2019-03-16T23:30:08.102Z,72.23
2019-03-16T23:32:36.555Z,72.25
2019-03-16T23:35:06.230Z,72.26
2019-03-16T23:37:34.641Z,72.27
2019-03-16T23:40:03.464Z,72.37
2019-03-16T23:42:31.877Z,72.40
2019-03-16T23:45:00.352Z,72.42
2019-03-16T23:47:28.979Z,72.42
2019-03-16T23:49:57.402Z,72.38
2019-03-16T23:52:25.838Z,72.37
2019-03-16T23:54:54.623Z,72.34
2019-03-16T23:57:23.217Z,72.35
2019-03-16T23:59:51.733Z,72.37
